To NAV CANADA Home Page Login to a new session Search on AWWS site Disclaimer Vers la page française équivalente Tips FAQ What's new on the site To the Forecasts and Observations / NOTAM section To "File a Flight Plan" website Publications and other links Update of the User's profile FIC Telephone Numbers My Weather Data Folder Route Weather Data Regional Weather Data Local Weather Data To the Forecasts and Observations / NOTAM section
Request Generated 03/19/2019 at 23:41:16 UTC . Weather information available at that time is displayed.

METAR/TAF

LANSDOWNE HOUSE/ON    (show WxCam)

SPECI CYLH 192316Z AUTO 22006KT 9SM -RA SCT034 SCT046 OVC055 03/M02 A2977 RMK SLP100=
SPECI CYLH 192311Z AUTO 22007KT 9SM SCT034 OVC049 03/M02 A2976 RMK SLP099=
SPECI CYLH 192307Z AUTO 24008KT 9SM -RA FEW036 SCT044 OVC049 03/M02 A2977 RMK SLP100=
SPECI CYLH 192301Z AUTO 23007KT 9SM -RA -UP SCT036 OVC047 03/M02 A2977 RMK SLP100=
METAR CYLH 192300Z AUTO 22007KT 9SM -UP SCT036 OVC045 03/M02 A2977 RMK SLP100=
SPECI CYLH 192229Z AUTO 24012KT 190V270 9SM -UP BKN039 BKN048 OVC055 03/M02 A2977 RMK SLP103=
METAR CYLH 192200Z AUTO 24009G17KT 9SM FEW044 SCT055 BKN075 OVC100 04/M03 A2977 RMK SLP103=
METAR CYLH 192100Z AUTO 23011G18KT 9SM OVC040 04/M03 A2980 RMK SLP111=

CYLH - No TAF is issued for this station

Your time UTC time
Weather data provided by Environment Canada and NAV CANADA